Terminal Aerodrome Forecast
Issued by NWS Lake Charles, LA

Home | Current Version | Previous Version | Text Only | Print | Product List | Glossary On
Versions: 1 2 3 4 5 6 7 8 9 10 11 12 13 14 15 16
000
FTUS44 KLCH 231857 AAA
TAFBPT
TAF AMD
KBPT 231857Z 2319/2418 VRB04KT P6SM VCTS FEW025CB SCT040 BKN100
      TEMPO 2319/2323 VRB12G20KT 3SM TSRA BKN025CB OVC040
     FM240000 VRB03KT P6SM FEW050 SCT100 OVC250
     FM241600 08009KT P6SM VCSH SCT025 BKN040=

USA.gov is the U.S. government's official web portal to all federal, state and local government web resources and services.